^^
Paulen-Weather Station Historical Data
Daily Summary for July 01, 2022 Units:  English    Metric   Both
Daily Weekly Monthly Yearly Custom
  High: Low: Average:
Temperature: 71.6 °F 59 °F 63.9 °F
Dew Point: 64.4 °F 55.4 °F 59.5 °F
Humidity: 96% 62% 86%
Wind Speed: 17.4mph 3.7mph 8.8mph
Wind Gust: 16.2mph - -
Wind- - SW
Pressure: 29.9 in 29.8 in -
Precipitation: 0.06 in    
Historical Graphs
 
 
Tabular Data for July 01, 2022
Time Temperature Dew Point Pressure Wind Wind Speed Wind Gust Humidity Rainfall Rate (Hourly) solar
00:04 64.4 °F 59 °F 29.9 in NNW 3.7 mph 3.7 mph 81% 0 in 0 W/m2
00:09 64.4 °F 59 °F 29.9 in NNW 3.7 mph 3.7 mph 81% 0 in 0 W/m2
00:14 64.4 °F 59 °F 29.9 in N 5.6 mph 5.6 mph 81% 0 in 0 W/m2
00:19 64.4 °F 59 °F 29.9 in N 6.2 mph 6.2 mph 81% 0 in 0 W/m2
00:24 64.4 °F 59 °F 29.9 in N 5 mph 5 mph 82% 0 in 0 W/m2
00:29 64.4 °F 59 °F 29.9 in N 5.6 mph 6.2 mph 83% 0 in 0 W/m2
00:34 64.4 °F 59 °F 29.9 in N 5.6 mph 5.6 mph 83% 0 in 0 W/m2
00:39 64.4 °F 59 °F 29.9 in N 6.2 mph 6.2 mph 83% 0 in 0 W/m2
00:44 64.4 °F 59 °F 29.9 in NNW 5.6 mph 6.2 mph 83% 0 in 0 W/m2
00:49 64.4 °F 59 °F 29.9 in NNW 4.3 mph 3.7 mph 82% 0 in 0 W/m2
00:54 64.4 °F 59 °F 29.9 in NNW 3.7 mph 3.7 mph 82% 0 in 0 W/m2
00:59 64.4 °F 59 °F 29.9 in NNW 3.7 mph 3.7 mph 82% 0 in 0 W/m2
01:04 64.4 °F 57.2 °F 29.9 in NNW 3.7 mph 3.7 mph 82% 0 in 0 W/m2
01:09 62.6 °F 59 °F 29.9 in NNW 4.3 mph 4.3 mph 83% 0 in 0 W/m2
01:14 62.6 °F 59 °F 29.9 in N 5.6 mph 5 mph 83% 0 in 0 W/m2
01:19 62.6 °F 59 °F 29.9 in NNW 5 mph 4.3 mph 84% 0 in 0 W/m2
01:24 62.6 °F 59 °F 29.9 in NNW 5.6 mph 4.3 mph 86% 0 in 0 W/m2
01:29 62.6 °F 59 °F 29.9 in N 5.6 mph 4.3 mph 86% 0 in 0 W/m2
01:34 62.6 °F 59 °F 29.9 in NNW 5 mph 4.3 mph 85% 0 in 0 W/m2
01:39 62.6 °F 57.2 °F 29.9 in NW 5.6 mph 5 mph 83% 0 in 0 W/m2
01:44 62.6 °F 57.2 °F 29.9 in NNW 5.6 mph 5.6 mph 79% 0 in 0 W/m2
01:49 62.6 °F 57.2 °F 29.9 in NNW 5 mph 4.3 mph 78% 0 in 0 W/m2
01:54 62.6 °F 57.2 °F 29.9 in NNW 4.3 mph 4.3 mph 79% 0 in 0 W/m2
01:59 62.6 °F 57.2 °F 29.9 in NNW 4.3 mph 3.7 mph 79% 0 in 0 W/m2
02:04 62.6 °F 57.2 °F 29.9 in NNW 3.7 mph 3.7 mph 80% 0 in 0 W/m2
02:09 62.6 °F 57.2 °F 29.9 in NNW 4.3 mph 4.3 mph 80% 0 in 0 W/m2
02:14 62.6 °F 57.2 °F 29.9 in NNW 5 mph 4.3 mph 81% 0 in 0 W/m2
02:19 62.6 °F 57.2 °F 29.9 in NNW 4.3 mph 4.3 mph 81% 0 in 0 W/m2
02:24 62.6 °F 57.2 °F 29.9 in N 5.6 mph 5 mph 82% 0 in 0 W/m2
02:29 62.6 °F 57.2 °F 29.9 in N 5.6 mph 5 mph 81% 0 in 0 W/m2
02:34 62.6 °F 57.2 °F 29.9 in N 6.2 mph 5.6 mph 82% 0 in 0 W/m2
02:39 62.6 °F 57.2 °F 29.9 in N 6.8 mph 6.8 mph 82% 0 in 0 W/m2
02:44 62.6 °F 57.2 °F 29.9 in N 8.1 mph 7.5 mph 81% 0 in 0 W/m2
02:49 62.6 °F 57.2 °F 29.9 in N 7.5 mph 6.2 mph 82% 0 in 0 W/m2
02:54 62.6 °F 57.2 °F 29.9 in NNW 5.6 mph 5 mph 83% 0 in 0 W/m2
02:59 62.6 °F 57.2 °F 29.9 in NNW 6.2 mph 5.6 mph 83% 0 in 0 W/m2
03:04 62.6 °F 57.2 °F 29.9 in NNW 5.6 mph 5 mph 84% 0 in 0 W/m2
03:09 62.6 °F 57.2 °F 29.9 in N 6.2 mph 5.6 mph 85% 0 in 0 W/m2
03:14 62.6 °F 57.2 °F 29.9 in N 6.2 mph 5.6 mph 85% 0 in 0 W/m2
03:19 62.6 °F 57.2 °F 29.9 in N 6.8 mph 6.8 mph 84% 0 in 0 W/m2
03:24 62.6 °F 57.2 °F 29.9 in NNW 6.2 mph 6.2 mph 83% 0 in 0 W/m2
03:29 62.6 °F 55.4 °F 29.9 in NNW 5 mph 4.3 mph 82% 0 in 0 W/m2
03:34 62.6 °F 55.4 °F 29.9 in NNW 5 mph 4.3 mph 81% 0 in 0 W/m2
03:39 62.6 °F 57.2 °F 29.9 in NNW 4.3 mph 5 mph 82% 0 in 0 W/m2
03:44 60.8 °F 55.4 °F 29.9 in NNW 5 mph 5 mph 81% 0 in 0 W/m2
03:49 60.8 °F 55.4 °F 29.9 in NNW 5.6 mph 5.6 mph 82% 0 in 0 W/m2
03:54 60.8 °F 55.4 °F 29.9 in NNW 5.6 mph 5 mph 81% 0 in 0 W/m2
03:59 62.6 °F 55.4 °F 29.9 in NNW 5.6 mph 5 mph 81% 0 in 0 W/m2
04:04 60.8 °F 55.4 °F 29.9 in NW 6.2 mph 6.8 mph 81% 0 in 0 W/m2
04:09 60.8 °F 55.4 °F 29.9 in NNW 7.5 mph 6.8 mph 81% 0 in 0 W/m2
04:14 60.8 °F 55.4 °F 29.9 in NNW 6.8 mph 6.2 mph 81% 0 in 0 W/m2
04:19 60.8 °F 55.4 °F 29.9 in NNW 6.8 mph 6.2 mph 82% 0 in 0 W/m2
04:24 60.8 °F 55.4 °F 29.9 in N 5.6 mph 5.6 mph 83% 0 in 0 W/m2
04:29 60.8 °F 55.4 °F 29.9 in N 7.5 mph 6.8 mph 82% 0 in 0 W/m2
04:34 60.8 °F 55.4 °F 29.9 in N 9.3 mph 8.1 mph 81% 0 in 5 W/m2
04:39 60.8 °F 55.4 °F 29.9 in N 8.1 mph 8.1 mph 81% 0 in 7 W/m2
04:44 60.8 °F 55.4 °F 29.9 in NNW 7.5 mph 6.2 mph 81% 0 in 7 W/m2
04:49 60.8 °F 55.4 °F 29.9 in N 7.5 mph 7.5 mph 81% 0 in 9 W/m2
04:54 60.8 °F 55.4 °F 29.9 in N 8.7 mph 7.5 mph 81% 0 in 7 W/m2
04:59 60.8 °F 55.4 °F 29.9 in N 8.1 mph 6.8 mph 81% 0 in 9 W/m2
05:04 60.8 °F 55.4 °F 29.9 in NNW 6.2 mph 5.6 mph 81% 0 in 11 W/m2
05:09 60.8 °F 55.4 °F 29.9 in NNW 6.8 mph 5.6 mph 81% 0 in 16 W/m2
05:14 60.8 °F 55.4 °F 29.9 in NNW 7.5 mph 6.8 mph 81% 0 in 19 W/m2
05:19 60.8 °F 55.4 °F 29.9 in NW 8.1 mph 7.5 mph 82% 0 in 23 W/m2
05:24 60.8 °F 55.4 °F 29.9 in NNW 8.1 mph 7.5 mph 82% 0 in 33 W/m2
05:29 60.8 °F 55.4 °F 29.9 in NNW 5.6 mph 5 mph 82% 0 in 28 W/m2
05:34 60.8 °F 55.4 °F 29.9 in N 8.1 mph 10.6 mph 83% 0 in 25 W/m2
05:39 60.8 °F 55.4 °F 29.9 in N 11.8 mph 9.9 mph 81% 0 in 25 W/m2
05:44 60.8 °F 55.4 °F 29.9 in NNW 9.3 mph 6.8 mph 81% 0 in 37 W/m2
05:49 60.8 °F 55.4 °F 29.9 in NNW 8.1 mph 6.8 mph 82% 0 in 37 W/m2
05:54 60.8 °F 55.4 °F 29.9 in N 8.1 mph 6.8 mph 82% 0 in 62 W/m2
05:59 60.8 °F 55.4 °F 29.9 in NNW 6.8 mph 6.2 mph 82% 0 in 100 W/m2
06:04 60.8 °F 55.4 °F 29.9 in NNW 6.8 mph 5 mph 82% 0 in 100 W/m2
06:09 60.8 °F 55.4 °F 29.9 in NNW 6.2 mph 6.2 mph 81% 0 in 93 W/m2
06:14 60.8 °F 55.4 °F 29.9 in N 8.1 mph 7.5 mph 80% 0 in 105 W/m2
06:19 60.8 °F 55.4 °F 29.9 in N 8.1 mph 7.5 mph 80% 0 in 130 W/m2
06:24 62.6 °F 55.4 °F 29.9 in N 6.8 mph 6.2 mph 79% 0 in 149 W/m2
06:29 62.6 °F 55.4 °F 29.9 in NNW 8.7 mph 7.5 mph 79% 0 in 156 W/m2
06:34 62.6 °F 57.2 °F 29.9 in N 7.5 mph 6.8 mph 80% 0 in 165 W/m2
06:39 62.6 °F 57.2 °F 29.9 in NNW 7.5 mph 6.2 mph 81% 0 in 176 W/m2
06:44 62.6 °F 57.2 °F 29.9 in NNW 6.8 mph 5 mph 81% 0 in 185 W/m2
06:49 62.6 °F 57.2 °F 29.9 in NNW 6.8 mph 5.6 mph 80% 0 in 195 W/m2
06:54 64.4 °F 57.2 °F 29.9 in NNW 6.2 mph 5 mph 79% 0 in 204 W/m2
06:59 64.4 °F 57.2 °F 29.9 in NNW 6.8 mph 6.2 mph 77% 0 in 213 W/m2
07:04 64.4 °F 57.2 °F 29.9 in NNW 5.6 mph 5.6 mph 77% 0 in 225 W/m2
07:09 64.4 °F 57.2 °F 29.9 in NNW 5.6 mph 4.3 mph 77% 0 in 237 W/m2
07:14 64.4 °F 57.2 °F 29.9 in NNW 5.6 mph 5 mph 77% 0 in 250 W/m2
07:19 64.4 °F 57.2 °F 29.9 in NNW 5.6 mph 5.6 mph 76% 0 in 295 W/m2
07:24 66.2 °F 57.2 °F 29.9 in NNW 5.6 mph 4.3 mph 74% 0 in 309 W/m2
07:29 66.2 °F 57.2 °F 29.9 in N 6.8 mph 6.2 mph 73% 0 in 301 W/m2
07:34 66.2 °F 57.2 °F 29.9 in N 7.5 mph 6.2 mph 73% 0 in 288 W/m2
07:39 66.2 °F 57.2 °F 29.9 in N 6.8 mph 6.2 mph 73% 0 in 295 W/m2
07:44 66.2 °F 57.2 °F 29.9 in N 8.1 mph 6.8 mph 73% 0 in 308 W/m2
07:49 66.2 °F 57.2 °F 29.9 in N 9.9 mph 8.7 mph 73% 0 in 322 W/m2
07:54 66.2 °F 57.2 °F 29.9 in N 10.6 mph 9.3 mph 72% 0 in 359 W/m2
07:59 66.2 °F 57.2 °F 29.9 in N 10.6 mph 8.7 mph 73% 0 in 360 W/m2
08:04 66.2 °F 57.2 °F 29.9 in N 9.9 mph 8.7 mph 72% 0 in 360 W/m2
08:09 66.2 °F 57.2 °F 29.9 in N 9.9 mph 8.1 mph 72% 0 in 381 W/m2
08:14 68 °F 59 °F 29.9 in N 8.1 mph 7.5 mph 74% 0 in 385 W/m2
08:19 68 °F 59 °F 29.9 in N 8.1 mph 7.5 mph 74% 0 in 397 W/m2
08:24 68 °F 59 °F 29.8 in N 8.7 mph 7.5 mph 73% 0 in 397 W/m2
08:29 68 °F 59 °F 29.8 in N 8.7 mph 7.5 mph 72% 0 in 404 W/m2
08:34 68 °F 59 °F 29.8 in N 9.9 mph 8.7 mph 72% 0 in 399 W/m2
08:39 68 °F 59 °F 29.8 in N 9.3 mph 7.5 mph 73% 0 in 362 W/m2
08:44 68 °F 59 °F 29.8 in N 7.5 mph 6.8 mph 74% 0 in 345 W/m2
08:49 68 °F 59 °F 29.8 in N 5 mph 5 mph 73% 0 in 413 W/m2
08:54 68 °F 59 °F 29.8 in N 4.3 mph 4.3 mph 71% 0 in 490 W/m2
08:59 69.8 °F 59 °F 29.8 in NNE 5 mph 4.3 mph 70% 0 in 513 W/m2
09:04 69.8 °F 59 °F 29.8 in ENE 8.1 mph 8.1 mph 68% 0 in 543 W/m2
09:09 71.6 °F 59 °F 29.8 in ENE 9.3 mph 6.8 mph 64% 0 in 504 W/m2
09:14 69.8 °F 57.2 °F 29.8 in E 9.9 mph 6.8 mph 63% 0 in 223 W/m2
09:19 69.8 °F 57.2 °F 29.8 in ENE 10.6 mph 9.9 mph 62% 0 in 313 W/m2
09:24 69.8 °F 57.2 °F 29.8 in E 13.7 mph 11.8 mph 62% 0 in 302 W/m2
09:29 69.8 °F 57.2 °F 29.8 in E 11.2 mph 9.3 mph 63% 0 in 311 W/m2
09:34 69.8 °F 57.2 °F 29.8 in E 11.8 mph 10.6 mph 63% 0 in 309 W/m2
09:39 69.8 °F 57.2 °F 29.8 in E 12.4 mph 13 mph 64% 0 in 673 W/m2
09:44 69.8 °F 57.2 °F 29.8 in E 17.4 mph 14.9 mph 63% 0 in 608 W/m2
09:49 69.8 °F 57.2 °F 29.8 in E 16.8 mph 14.3 mph 65% 0 in 577 W/m2
09:54 69.8 °F 57.2 °F 29.8 in E 16.8 mph 14.3 mph 66% 0 in 578 W/m2
09:59 69.8 °F 59 °F 29.8 in E 16.2 mph 14.3 mph 67% 0 in 603 W/m2
10:04 69.8 °F 59 °F 29.8 in E 14.9 mph 13.7 mph 69% 0 in 603 W/m2
10:09 69.8 °F 59 °F 29.8 in E 16.2 mph 14.3 mph 69% 0 in 585 W/m2
10:14 69.8 °F 59 °F 29.8 in E 16.2 mph 13.7 mph 70% 0 in 596 W/m2
10:19 69.8 °F 59 °F 29.8 in E 16.2 mph 16.2 mph 72% 0 in 605 W/m2
10:24 69.8 °F 60.8 °F 29.8 in E 17.4 mph 16.2 mph 73% 0 in 628 W/m2
10:29 68 °F 60.8 °F 29.8 in E 16.2 mph 14.3 mph 74% 0 in 638 W/m2
10:34 68 °F 60.8 °F 29.8 in E 17.4 mph 15.5 mph 76% 0 in 670 W/m2
10:39 68 °F 60.8 °F 29.8 in E 16.8 mph 14.9 mph 76% 0 in 740 W/m2
10:44 68 °F 60.8 °F 29.8 in E 16.2 mph 13.7 mph 77% 0 in 740 W/m2
10:49 68 °F 60.8 °F 29.8 in E 14.9 mph 14.9 mph 78% 0 in 717 W/m2
10:54 68 °F 62.6 °F 29.8 in ENE 13.7 mph 13 mph 79% 0 in 752 W/m2
10:59 69.8 °F 62.6 °F 29.8 in E 11.2 mph 9.3 mph 79% 0 in 752 W/m2
11:04 69.8 °F 62.6 °F 29.8 in E 12.4 mph 10.6 mph 80% 0 in 773 W/m2
11:09 68 °F 62.6 °F 29.8 in E 14.3 mph 11.2 mph 81% 0 in 642 W/m2
11:14 68 °F 62.6 °F 29.8 in E 13 mph 9.9 mph 82% 0 in 642 W/m2
11:19 68 °F 62.6 °F 29.8 in E 14.3 mph 11.2 mph 82% 0 in 555 W/m2
11:24 68 °F 62.6 °F 29.8 in E 14.3 mph 13 mph 83% 0 in 272 W/m2
11:29 68 °F 62.6 °F 29.8 in E 15.5 mph 13.7 mph 84% 0 in 355 W/m2
11:34 68 °F 62.6 °F 29.8 in E 15.5 mph 14.3 mph 85% 0 in 399 W/m2
11:39 68 °F 62.6 °F 29.8 in E 14.9 mph 13 mph 85% 0 in 341 W/m2
11:44 68 °F 62.6 °F 29.8 in E 11.8 mph 9.3 mph 86% 0 in 281 W/m2
11:49 66.2 °F 62.6 °F 29.8 in E 11.8 mph 9.9 mph 86% 0 in 299 W/m2
11:54 66.2 °F 62.6 °F 29.8 in E 10.6 mph 8.7 mph 87% 0 in 301 W/m2
11:59 68 °F 62.6 °F 29.8 in ENE 11.2 mph 9.9 mph 87% 0 in 248 W/m2
12:04 66.2 °F 62.6 °F 29.8 in E 12.4 mph 10.6 mph 87% 0 in 227 W/m2
12:09 66.2 °F 62.6 °F 29.8 in E 14.9 mph 13.7 mph 87% 0 in 186 W/m2
12:14 66.2 °F 62.6 °F 29.8 in E 14.3 mph 13.7 mph 87% 0 in 151 W/m2
12:19 66.2 °F 62.6 °F 29.8 in E 14.3 mph 13.7 mph 88% 0 in 142 W/m2
12:24 66.2 °F 62.6 °F 29.8 in E 14.9 mph 13.7 mph 88% 0 in 127 W/m2
12:29 66.2 °F 62.6 °F 29.8 in E 11.8 mph 10.6 mph 89% 0 in 128 W/m2
12:34 66.2 °F 62.6 °F 29.8 in ESE 11.2 mph 8.7 mph 89% 0 in 139 W/m2
12:39 66.2 °F 62.6 °F 29.8 in ESE 13 mph 10.6 mph 89% 0 in 172 W/m2
12:44 66.2 °F 62.6 °F 29.8 in ESE 11.8 mph 9.9 mph 89% 0 in 209 W/m2
12:49 66.2 °F 62.6 °F 29.8 in ESE 11.2 mph 8.7 mph 89% 0 in 239 W/m2
12:54 66.2 °F 62.6 °F 29.8 in ESE 12.4 mph 11.2 mph 89% 0 in 237 W/m2
12:59 66.2 °F 62.6 °F 29.9 in ESE 12.4 mph 10.6 mph 90% 0 in 223 W/m2
13:04 66.2 °F 62.6 °F 29.9 in ESE 11.2 mph 10.6 mph 90% 0 in 301 W/m2
13:09 66.2 °F 64.4 °F 29.8 in ESE 8.7 mph 8.1 mph 91% 0 in 492 W/m2
13:14 66.2 °F 64.4 °F 29.8 in ESE 10.6 mph 9.3 mph 91% 0 in 492 W/m2
13:19 66.2 °F 64.4 °F 29.9 in ESE 10.6 mph 9.3 mph 91% 0 in 703 W/m2
13:24 66.2 °F 64.4 °F 29.8 in ESE 12.4 mph 10.6 mph 91% 0 in 489 W/m2
13:29 66.2 °F 64.4 °F 29.8 in ESE 11.8 mph 9.3 mph 91% 0 in 765 W/m2
13:34 66.2 °F 64.4 °F 29.8 in ESE 10.6 mph 8.7 mph 91% 0 in 701 W/m2
13:39 66.2 °F 64.4 °F 29.8 in ESE 11.2 mph 9.9 mph 91% 0 in 671 W/m2
13:44 66.2 °F 64.4 °F 29.8 in ESE 10.6 mph 8.7 mph 90% 0 in 946 W/m2
13:49 68 °F 64.4 °F 29.8 in ESE 11.2 mph 9.9 mph 90% 0 in 587 W/m2
13:54 66.2 °F 64.4 °F 29.8 in ESE 10.6 mph 8.7 mph 89% 0 in 1028 W/m2
13:59 68 °F 64.4 °F 29.8 in ESE 9.9 mph 8.7 mph 89% 0 in 441 W/m2
14:04 68 °F 64.4 °F 29.8 in ESE 9.3 mph 8.1 mph 89% 0 in 628 W/m2
14:09 68 °F 64.4 °F 29.8 in E 8.7 mph 7.5 mph 88% 0 in 675 W/m2
14:14 68 °F 64.4 °F 29.8 in ESE 9.3 mph 8.1 mph 88% 0 in 504 W/m2
14:19 66.2 °F 62.6 °F 29.8 in E 9.9 mph 9.3 mph 88% 0 in 580 W/m2
14:24 66.2 °F 62.6 °F 29.8 in ESE 9.3 mph 8.7 mph 88% 0 in 580 W/m2
14:29 66.2 °F 62.6 °F 29.8 in E 8.1 mph 6.8 mph 88% 0 in 323 W/m2
14:34 66.2 °F 62.6 °F 29.8 in E 9.3 mph 7.5 mph 88% 0 in 167 W/m2
14:39 66.2 °F 62.6 °F 29.8 in ESE 8.1 mph 6.8 mph 89% 0 in 146 W/m2
14:44 66.2 °F 62.6 °F 29.8 in ESE 6.2 mph 5 mph 89% 0 in 137 W/m2
14:49 66.2 °F 64.4 °F 29.8 in SSE 6.2 mph 5.6 mph 90% 0 in 86 W/m2
14:54 66.2 °F 64.4 °F 29.8 in SSE 9.3 mph 8.7 mph 90% 0 in 79 W/m2
14:59 66.2 °F 64.4 °F 29.8 in SSE 7.5 mph 7.5 mph 89% 0 in 65 W/m2
15:04 66.2 °F 64.4 °F 29.8 in SE 5.6 mph 6.8 mph 90% 0 in 60 W/m2
15:09 66.2 °F 64.4 °F 29.8 in SE 5 mph 5 mph 90% 0 in 54 W/m2
15:14 66.2 °F 64.4 °F 29.8 in SE 4.3 mph 4.3 mph 91% 0 in 56 W/m2
15:19 66.2 °F 64.4 °F 29.8 in SE 4.3 mph 5 mph 91% 0 in 70 W/m2
15:24 66.2 °F 64.4 °F 29.8 in SE 5 mph 6.8 mph 91% 0 in 74 W/m2
15:29 66.2 °F 64.4 °F 29.8 in SE 7.5 mph 6.8 mph 91% 0 in 47 W/m2
15:34 66.2 °F 64.4 °F 29.8 in SE 5 mph 5.6 mph 91% 0 in 62 W/m2
15:39 66.2 °F 64.4 °F 29.8 in SE 5 mph 4.3 mph 91% 0 in 69 W/m2
15:44 66.2 °F 64.4 °F 29.8 in ESE 6.2 mph 5.6 mph 91% 0 in 79 W/m2
15:49 66.2 °F 64.4 °F 29.8 in ESE 8.1 mph 7.5 mph 92% 0 in 69 W/m2
15:54 66.2 °F 64.4 °F 29.8 in SE 6.2 mph 4.3 mph 92% 0 in 42 W/m2
15:59 66.2 °F 64.4 °F 29.8 in SE 6.8 mph 5.6 mph 92% 0 in 33 W/m2
16:04 66.2 °F 64.4 °F 29.8 in SSE 9.3 mph 9.3 mph 92% 0 in 40 W/m2
16:09 66.2 °F 62.6 °F 29.8 in S 14.3 mph 12.4 mph 92% 0 in 42 W/m2
16:14 64.4 °F 62.6 °F 29.8 in S 14.3 mph 13.7 mph 92% 0 in 63 W/m2
16:19 64.4 °F 62.6 °F 29.8 in S 13.7 mph 11.8 mph 92% 0 in 79 W/m2
16:24 64.4 °F 62.6 °F 29.9 in S 13.7 mph 12.4 mph 92% 0 in 84 W/m2
16:29 64.4 °F 62.6 °F 29.9 in S 14.9 mph 11.8 mph 92% 0 in 79 W/m2
16:34 64.4 °F 62.6 °F 29.9 in S 12.4 mph 10.6 mph 92% 0 in 69 W/m2
16:39 64.4 °F 62.6 °F 29.9 in S 13.7 mph 11.2 mph 92% 0 in 77 W/m2
16:44 64.4 °F 62.6 °F 29.9 in S 12.4 mph 10.6 mph 92% 0 in 95 W/m2
16:49 64.4 °F 62.6 °F 29.9 in S 13.7 mph 11.8 mph 92% 0 in 102 W/m2
16:54 64.4 °F 62.6 °F 29.9 in S 9.9 mph 8.7 mph 93% 0 in 93 W/m2
16:59 64.4 °F 62.6 °F 29.9 in SSW 9.3 mph 7.5 mph 93% 0 in 65 W/m2
17:04 64.4 °F 62.6 °F 29.9 in S 9.9 mph 8.7 mph 93% 0.01 in 86 W/m2
17:09 64.4 °F 62.6 °F 29.9 in S 8.7 mph 8.7 mph 93% 0.02 in 84 W/m2
17:14 64.4 °F 62.6 °F 29.9 in SSW 9.3 mph 7.5 mph 94% 0.02 in 84 W/m2
17:19 64.4 °F 62.6 °F 29.9 in SSW 8.1 mph 6.2 mph 95% 0.02 in 77 W/m2
17:24 64.4 °F 62.6 °F 29.9 in SSW 8.1 mph 6.2 mph 95% 0.03 in 72 W/m2
17:29 64.4 °F 62.6 °F 29.9 in S 9.3 mph 7.5 mph 95% 0.04 in 54 W/m2
17:34 64.4 °F 62.6 °F 29.9 in SSW 9.3 mph 6.8 mph 96% 0.04 in 47 W/m2
17:39 62.6 °F 62.6 °F 29.9 in SSW 9.9 mph 9.3 mph 96% 0.04 in 25 W/m2
17:44 62.6 °F 62.6 °F 29.9 in SSW 11.8 mph 9.3 mph 96% 0.04 in 26 W/m2
17:49 62.6 °F 60.8 °F 29.9 in SW 11.2 mph 9.3 mph 96% 0.04 in 60 W/m2
17:54 62.6 °F 60.8 °F 29.9 in SW 12.4 mph 9.3 mph 96% 0.05 in 62 W/m2
17:59 62.6 °F 60.8 °F 29.9 in SSW 12.4 mph 9.9 mph 96% 0.05 in 60 W/m2
18:04 62.6 °F 60.8 °F 29.9 in SW 12.4 mph 9.3 mph 96% 0.05 in 63 W/m2
18:09 62.6 °F 60.8 °F 29.9 in SSW 11.2 mph 8.1 mph 96% 0.04 in 81 W/m2
18:14 62.6 °F 60.8 °F 29.9 in SW 9.3 mph 7.5 mph 96% 0.03 in 53 W/m2
18:19 62.6 °F 60.8 °F 29.9 in SSW 12.4 mph 10.6 mph 96% 0.03 in 35 W/m2
18:24 60.8 °F 60.8 °F 29.9 in SW 13.7 mph 10.6 mph 96% 0.02 in 19 W/m2
18:29 60.8 °F 60.8 °F 29.9 in SW 11.2 mph 8.7 mph 96% 0.02 in 32 W/m2
18:34 62.6 °F 60.8 °F 29.9 in SW 12.4 mph 8.1 mph 95% 0.01 in 40 W/m2
18:39 60.8 °F 60.8 °F 29.9 in SW 11.2 mph 8.1 mph 95% 0.01 in 30 W/m2
18:44 60.8 °F 60.8 °F 29.9 in SSW 11.2 mph 6.8 mph 96% 0.01 in 35 W/m2
18:49 60.8 °F 60.8 °F 29.9 in SW 11.2 mph 10.6 mph 95% 0.01 in 33 W/m2
18:54 60.8 °F 60.8 °F 29.9 in SW 12.4 mph 9.9 mph 95% 0 in 37 W/m2
18:59 60.8 °F 60.8 °F 29.9 in SW 11.2 mph 8.1 mph 95% 0 in 37 W/m2
19:04 60.8 °F 60.8 °F 29.9 in SW 11.8 mph 8.7 mph 95% 0 in 37 W/m2
19:09 60.8 °F 59 °F 29.9 in SW 11.8 mph 8.7 mph 95% 0 in 39 W/m2
19:14 60.8 °F 59 °F 29.9 in SW 10.6 mph 8.1 mph 95% 0 in 39 W/m2
19:19 60.8 °F 59 °F 29.9 in SW 9.9 mph 8.1 mph 95% 0 in 37 W/m2
19:24 60.8 °F 59 °F 29.9 in SSW 10.6 mph 6.2 mph 95% 0 in 19 W/m2
19:29 60.8 °F 59 °F 29.9 in WSW 11.2 mph 7.5 mph 94% 0 in 30 W/m2
19:34 60.8 °F 59 °F 29.9 in WSW 12.4 mph 7.5 mph 94% 0 in 33 W/m2
19:39 60.8 °F 59 °F 29.9 in SW 11.8 mph 8.1 mph 95% 0 in 28 W/m2
19:44 60.8 °F 59 °F 29.9 in SSW 5 mph 3.7 mph 95% 0 in 19 W/m2
19:49 60.8 °F 59 °F 29.9 in SW 9.3 mph 6.2 mph 94% 0 in 14 W/m2
19:54 60.8 °F 59 °F 29.9 in SW 9.9 mph 7.5 mph 94% 0 in 16 W/m2
19:59 60.8 °F 59 °F 29.9 in SW 9.9 mph 6.2 mph 94% 0 in 16 W/m2
20:04 60.8 °F 59 °F 29.9 in WSW 10.6 mph 6.2 mph 94% 0 in 16 W/m2
20:09 60.8 °F 59 °F 29.9 in SW 9.9 mph 6.8 mph 94% 0 in 32 W/m2
20:14 60.8 °F 59 °F 29.9 in SW 8.7 mph 6.2 mph 94% 0 in 33 W/m2
20:19 60.8 °F 59 °F 29.9 in SW 6.8 mph 4.3 mph 94% 0 in 32 W/m2
20:24 60.8 °F 59 °F 29.9 in SW 8.1 mph 6.8 mph 94% 0 in 42 W/m2
20:29 60.8 °F 59 °F 29.9 in SW 8.1 mph 6.2 mph 94% 0 in 42 W/m2
20:34 60.8 °F 59 °F 29.9 in SW 7.5 mph 5.6 mph 94% 0 in 32 W/m2
20:39 60.8 °F 59 °F 29.9 in WSW 8.1 mph 6.2 mph 95% 0 in 25 W/m2
20:44 59 °F 59 °F 29.9 in WSW 8.1 mph 7.5 mph 95% 0 in 25 W/m2
20:49 59 °F 59 °F 29.9 in SW 8.1 mph 6.2 mph 94% 0 in 23 W/m2
20:54 59 °F 57.2 °F 29.9 in SW 5.6 mph 5 mph 94% 0 in 19 W/m2
20:59 59 °F 57.2 °F 29.9 in WSW 7.5 mph 4.3 mph 94% 0 in 26 W/m2
21:04 59 °F 59 °F 29.9 in WSW 9.3 mph 6.2 mph 94% 0 in 26 W/m2
21:09 59 °F 59 °F 29.9 in SW 8.7 mph 6.2 mph 94% 0 in 25 W/m2
21:14 59 °F 59 °F 29.9 in SSW 8.1 mph 5.6 mph 94% 0 in 21 W/m2
21:19 59 °F 59 °F 29.9 in SW 7.5 mph 5.6 mph 94% 0 in 12 W/m2
21:24 59 °F 59 °F 29.9 in SW 7.5 mph 6.2 mph 94% 0 in 9 W/m2
21:29 60.8 °F 59 °F 29.9 in S 5.6 mph 5 mph 94% 0 in 11 W/m2
21:34 60.8 °F 59 °F 29.9 in SW 8.1 mph 6.8 mph 94% 0.01 in 11 W/m2
21:39 60.8 °F 59 °F 29.9 in WSW 7.5 mph 5.6 mph 94% 0.01 in 5 W/m2
21:44 60.8 °F 59 °F 29.9 in WSW 7.5 mph 5 mph 94% 0.01 in 0 W/m2
21:49 60.8 °F 59 °F 29.9 in WSW 6.8 mph 5 mph 94% 0.01 in 5 W/m2
21:54 60.8 °F 59 °F 29.9 in WSW 6.8 mph 5 mph 94% 0.01 in 7 W/m2
21:59 59 °F 59 °F 29.9 in SW 4.3 mph 3.1 mph 94% 0.01 in 7 W/m2
22:04 60.8 °F 59 °F 29.9 in WSW 6.2 mph 5 mph 94% 0.01 in 0 W/m2
22:09 59 °F 59 °F 29.9 in WSW 5 mph 5 mph 94% 0.01 in 0 W/m2
22:14 59 °F 59 °F 29.9 in WSW 6.2 mph 5 mph 94% 0.01 in 0 W/m2
22:19 59 °F 59 °F 29.9 in WSW 6.8 mph 5.6 mph 94% 0.01 in 0 W/m2
22:24 59 °F 59 °F 29.9 in WSW 5.6 mph 4.3 mph 94% 0.01 in 0 W/m2
22:29 59 °F 59 °F 29.9 in WSW 8.7 mph 5 mph 94% 0.01 in 0 W/m2
22:34 59 °F 59 °F 29.9 in WSW 5.6 mph 5 mph 94% 0 in 0 W/m2
22:39 59 °F 59 °F 29.9 in WSW 4.3 mph 4.3 mph 94% 0 in 0 W/m2
22:44 59 °F 59 °F 29.9 in SW 6.8 mph 5 mph 94% 0 in 0 W/m2
22:49 59 °F 57.2 °F 29.9 in WSW 6.8 mph 4.3 mph 94% 0 in 0 W/m2
22:54 59 °F 57.2 °F 29.9 in SW 5 mph 3.1 mph 94% 0 in 0 W/m2
22:59 59 °F 57.2 °F 29.9 in SW 5 mph 5 mph 93% 0 in 0 W/m2
23:04 59 °F 57.2 °F 29.9 in SW 8.1 mph 5 mph 93% 0 in 0 W/m2
23:09 59 °F 57.2 °F 29.9 in W 5.6 mph 4.3 mph 93% 0 in 0 W/m2
23:14 59 °F 57.2 °F 29.9 in WSW 8.7 mph 4.3 mph 93% 0 in 0 W/m2
23:19 60.8 °F 57.2 °F 29.9 in SSW 6.2 mph 5 mph 93% 0 in 0 W/m2
23:24 60.8 °F 57.2 °F 29.9 in WSW 6.2 mph 4.3 mph 92% 0 in 0 W/m2
23:29 60.8 °F 57.2 °F 29.9 in WSW 8.7 mph 6.2 mph 92% 0 in 0 W/m2
23:34 60.8 °F 57.2 °F 29.9 in WSW 6.8 mph 6.8 mph 92% 0 in 0 W/m2
23:39 60.8 °F 57.2 °F 29.9 in WSW 4.3 mph 3.7 mph 92% 0 in 0 W/m2
23:44 59 °F 57.2 °F 29.9 in WSW 9.3 mph 5.6 mph 92% 0 in 0 W/m2
23:49 59 °F 57.2 °F 29.9 in WSW 8.1 mph 6.2 mph 92% 0 in 0 W/m2
23:54 59 °F 57.2 °F 29.9 in W 5 mph 5 mph 92% 0 in 0 W/m2
23:59 59 °F 57.2 °F 29.9 in W 5 mph 4.3 mph 92% 0 in 0 W/m2
Compliments of Weather Underground - 2 mb